Mc Cutchenville, Ohio
Current Conditions -  °F | °C
As of 12:53 AM on Friday 31 Oct 2014 (Local Time) from KFDY Reporting Station
Overcast Overcast  
Wind Chill: 39°   Ceiling: 9000
Heat Index: 42°   Visibility: 10mi
Dew Point: 37°   Wind: 5mph
Humidity: 82%   Direction: 200°SSW
Pressure: 30.02"   Gusts: NA
Location:  40.988°N, 83.2626°W
Report Text: KFDY 310453Z AUTO 20004KT 10SM SCT050 BKN090 OVC120 06/03 A3002 RMK AO2 SLP165 T00560028 401060033
Loading
Personal Weather Stations






























Interactive Weather Map
Tropical Storm Tracking
New forecast layout! Learn more

10-Day Weather Forecast

Advertisements
Track Severe Weather on mobile